Time;durP1;ratioP1;P1;durP2;ratioP2;P2;SDS_P1;SDS_P2;PMS_P1;PMS_P2;Temp;Humidity;BMP_temperature;BMP_pressure;BME280_temperature;BME280_humidity;BME280_pressure;Samples;Min_cycle;Max_cycle;Signal;HPM_P1;HPM_P2
2023/12/08 00:00:51;;;;;;;18.30;12.38;;;;;;;2.14;94.66;100612.53;5112284;28;20032;-60
2023/12/08 00:03:17;;;;;;;14.05;10.95;;;;;;;2.23;94.84;100627.97;5097933;27;20156;-59
2023/12/08 00:05:42;;;;;;;18.88;11.88;;;;;;;2.14;94.67;100614.28;5094260;28;20027;-60
2023/12/08 00:08:08;;;;;;;19.55;13.40;;;;;;;2.19;95.41;100620.25;5114853;27;20031;-59
2023/12/08 00:10:33;;;;;;;16.17;12.00;;;;;;;2.19;95.23;100608.00;5111835;28;20513;-60
2023/12/08 00:12:58;;;;;;;17.90;13.02;;;;;;;2.24;95.52;100611.34;5112714;28;20061;-59
2023/12/08 00:15:24;;;;;;;20.10;13.77;;;;;;;2.25;95.02;100609.56;5111532;28;20066;-59
2023/12/08 00:17:49;;;;;;;17.83;12.57;;;;;;;2.23;94.83;100596.47;5094556;28;20501;-60
2023/12/08 00:20:16;;;;;;;22.40;13.35;;;;;;;2.20;94.97;100598.34;5112022;27;20488;-59
2023/12/08 00:22:41;;;;;;;19.42;12.80;;;;;;;2.22;95.35;100605.25;5094308;28;20029;-59
2023/12/08 00:25:07;;;;;;;20.02;13.10;;;;;;;2.24;95.56;100608.72;5094826;27;20561;-59
2023/12/08 00:27:35;;;;;;;18.80;12.77;;;;;;;2.23;95.13;100609.59;5113466;28;20028;-59
2023/12/08 00:30:00;;;;;;;22.25;13.88;;;;;;;2.22;95.44;100602.66;5093325;28;20065;-59
2023/12/08 00:32:26;;;;;;;18.63;13.35;;;;;;;2.23;95.13;100596.47;5094380;27;20027;-59
2023/12/08 00:34:54;;;;;;;20.52;13.70;;;;;;;2.23;95.64;100593.00;5097192;28;20016;-59
2023/12/08 00:37:20;;;;;;;18.25;12.52;;;;;;;2.23;95.57;100591.22;5112749;27;20493;-59
2023/12/08 00:39:46;;;;;;;20.48;13.60;;;;;;;2.21;95.41;100582.56;5113467;27;20110;-59
2023/12/08 00:42:12;;;;;;;18.25;12.55;;;;;;;2.24;95.03;100589.50;5099519;28;20030;-60
2023/12/08 00:44:38;;;;;;;21.27;13.23;;;;;;;2.25;95.46;100580.69;5111189;28;20045;-59
2023/12/08 00:47:04;;;;;;;24.80;13.07;;;;;;;2.27;95.36;100579.75;5093759;28;20445;-59
2023/12/08 00:49:30;;;;;;;18.90;12.57;;;;;;;2.27;95.31;100582.38;5112635;27;20066;-59
2023/12/08 00:51:55;;;;;;;20.50;13.75;;;;;;;2.27;95.23;100581.50;5114327;27;20055;-59
2023/12/08 00:54:21;;;;;;;16.30;12.88;;;;;;;2.30;95.88;100577.94;5111617;28;20022;-59
2023/12/08 00:56:47;;;;;;;19.60;12.68;;;;;;;2.33;94.90;100573.44;5112569;27;20051;-59
2023/12/08 00:59:12;;;;;;;22.90;13.75;;;;;;;2.24;95.20;100556.22;5098433;28;20023;-59
2023/12/08 01:01:38;;;;;;;18.67;12.93;;;;;;;2.35;95.12;100570.75;5111213;28;20420;-58
2023/12/08 01:04:03;;;;;;;22.20;13.30;;;;;;;2.33;95.04;100568.19;5093045;28;20097;-58
2023/12/08 01:06:29;;;;;;;20.45;13.52;;;;;;;2.33;95.73;100567.34;5112953;27;20031;-59
2023/12/08 01:08:54;;;;;;;21.42;14.00;;;;;;;2.35;95.15;100568.97;5116204;27;20420;-59
2023/12/08 01:11:19;;;;;;;19.63;13.60;;;;;;;2.36;95.86;100557.59;5093691;28;20499;-58
2023/12/08 01:13:45;;;;;;;20.58;13.00;;;;;;;2.38;95.29;100555.78;5093824;28;20022;-59
2023/12/08 01:16:10;;;;;;;18.48;12.75;;;;;;;2.39;95.67;100549.59;5093321;28;20026;-58
2023/12/08 01:18:36;;;;;;;21.05;13.02;;;;;;;2.41;96.14;100550.41;5095471;28;20390;-59
2023/12/08 01:21:01;;;;;;;19.05;12.40;;;;;;;2.41;95.74;100539.03;5111207;28;20054;-58
2023/12/08 01:23:27;;;;;;;21.10;13.05;;;;;;;2.41;95.91;100542.56;5095036;28;20134;-58
2023/12/08 01:25:52;;;;;;;19.13;12.85;;;;;;;2.41;95.76;100536.41;5092711;28;20086;-58
2023/12/08 01:28:17;;;;;;;17.67;12.02;;;;;;;2.42;95.67;100535.53;5111527;28;20035;-58
2023/12/08 01:30:43;;;;;;;19.38;12.55;;;;;;;2.40;95.74;100532.94;5111364;28;20063;-59
2023/12/08 01:33:08;;;;;;;17.02;13.07;;;;;;;2.37;96.09;100529.56;5111631;28;20054;-59
2023/12/08 01:35:34;;;;;;;21.77;14.05;;;;;;;2.37;95.72;100530.44;5092830;28;20031;-59
2023/12/08 01:37:59;;;;;;;24.13;13.95;;;;;;;2.38;96.36;100531.28;5118295;28;20035;-59
2023/12/08 01:40:25;;;;;;;18.58;12.07;;;;;;;2.35;97.10;100521.75;5116182;28;20089;-59
2023/12/08 01:42:51;;;;;;;21.40;12.82;;;;;;;2.32;97.11;100518.38;5111213;28;20402;-58
2023/12/08 01:45:16;;;;;;;18.20;12.23;;;;;;;2.38;96.88;100524.28;5092291;28;20039;-58
2023/12/08 01:47:43;;;;;;;21.10;13.88;;;;;;;2.34;97.53;100514.78;5112295;28;20036;-59
2023/12/08 01:50:11;;;;;;;19.02;13.18;;;;;;;2.37;97.91;100513.81;5108723;28;20020;-59
2023/12/08 01:52:39;;;;;;;18.13;11.82;;;;;;;2.35;98.03;100510.38;5111269;28;20423;-59
2023/12/08 01:55:05;;;;;;;20.42;13.40;;;;;;;2.36;98.06;100515.59;5111272;28;20020;-58
2023/12/08 01:57:32;;;;;;;19.40;12.80;;;;;;;2.35;97.89;100513.00;5115423;28;20027;-58
2023/12/08 02:00:00;;;;;;;17.92;12.50;;;;;;;2.34;98.55;100511.31;5094036;28;20031;-59
2023/12/08 02:02:26;;;;;;;20.45;12.98;;;;;;;2.35;99.66;100515.63;5115204;28;20027;-58
2023/12/08 02:04:56;;;;;;;20.93;12.60;;;;;;;2.36;99.42;100515.59;5110763;28;20046;-59
2023/12/08 02:07:22;;;;;;;17.98;12.15;;;;;;;2.36;99.28;100502.47;5111880;28;20401;-59
2023/12/08 02:09:47;;;;;;;20.50;12.85;;;;;;;2.39;99.62;100510.25;5113024;28;20019;-59
2023/12/08 02:12:13;;;;;;;22.23;12.23;;;;;;;2.36;99.67;100504.25;5115411;28;20515;-59
2023/12/08 02:14:38;;;;;;;20.07;13.20;;;;;;;2.38;99.94;100499.78;5112122;28;20436;-58
2023/12/08 02:17:18;;;;;;;18.73;11.67;;;;;;;2.35;100.00;100482.38;5093253;28;20024;-59
2023/12/08 02:19:45;;;;;;;19.52;12.02;;;;;;;2.35;100.00;100469.25;5109842;28;20031;-59
2023/12/08 02:22:10;;;;;;;17.87;12.40;;;;;;;2.33;100.00;100465.00;5110414;28;20034;-59
2023/12/08 02:24:35;;;;;;;18.63;12.80;;;;;;;2.35;100.00;100461.38;5110806;28;20395;-59
2023/12/08 02:27:01;;;;;;;19.77;13.15;;;;;;;2.35;100.00;100465.78;5111018;28;20020;-59
2023/12/08 02:29:27;;;;;;;17.48;12.05;;;;;;;2.38;100.00;100465.66;5113279;28;20473;-59
2023/12/08 02:32:01;;;;;;;17.13;13.57;;;;;;;2.32;100.00;100469.38;5093714;27;20024;-59
2023/12/08 02:34:30;;;;;;;19.17;12.90;;;;;;;2.33;100.00;100481.59;5113809;28;20023;-58
2023/12/08 02:36:58;;;;;;;21.00;13.55;;;;;;;2.30;100.00;100484.31;5113024;27;20117;-59
2023/12/08 02:39:26;;;;;;;21.52;13.38;;;;;;;2.25;100.00;100483.63;5099130;27;20047;-58
2023/12/08 02:41:53;;;;;;;19.20;11.80;;;;;;;2.21;100.00;100467.13;5117122;27;20016;-59
2023/12/08 02:44:18;;;;;;;16.83;12.35;;;;;;;2.10;100.00;100453.53;5095746;28;20027;-59
2023/12/08 02:46:44;;;;;;;18.40;12.80;;;;;;;2.20;100.00;100475.91;5113644;28;20081;-59
2023/12/08 02:49:09;;;;;;;17.67;11.65;;;;;;;2.19;100.00;100460.22;5114849;27;20112;-59
2023/12/08 02:51:35;;;;;;;17.52;12.70;;;;;;;2.19;100.00;100468.09;5098860;27;20019;-59
2023/12/08 02:54:00;;;;;;;22.60;15.18;;;;;;;2.19;100.00;100468.94;5095221;27;20466;-58
2023/12/08 02:56:25;;;;;;;22.58;12.63;;;;;;;2.16;100.00;100465.56;5095674;28;20035;-59
2023/12/08 02:58:51;;;;;;;21.83;13.23;;;;;;;2.11;100.00;100470.13;5113703;28;20387;-59
2023/12/08 03:01:16;;;;;;;18.92;12.88;;;;;;;2.16;100.00;100478.69;5113578;27;20067;-59
2023/12/08 03:03:44;;;;;;;18.48;13.20;;;;;;;2.16;100.00;100476.91;5087445;28;20024;-59
2023/12/08 03:06:09;;;;;;;18.20;12.75;;;;;;;2.12;100.00;100469.19;5108335;28;20482;-59
2023/12/08 03:08:35;;;;;;;18.58;12.27;;;;;;;2.11;100.00;100476.22;5114003;28;20116;-59
2023/12/08 03:11:01;;;;;;;18.02;13.30;;;;;;;2.12;100.00;100477.06;5113729;28;20080;-59
2023/12/08 03:13:26;;;;;;;20.08;12.90;;;;;;;2.08;100.00;100472.84;5095254;28;20039;-59
2023/12/08 03:15:52;;;;;;;21.70;12.88;;;;;;;2.13;100.00;100477.03;5114286;27;20165;-59
2023/12/08 03:18:17;;;;;;;19.40;13.45;;;;;;;2.09;100.00;100464.06;5113934;27;20031;-59
2023/12/08 03:20:42;;;;;;;21.52;13.07;;;;;;;2.07;100.00;100458.03;5113872;27;20038;-59
2023/12/08 03:23:08;;;;;;;22.02;13.35;;;;;;;2.17;100.00;100472.53;5113621;28;20035;-59
2023/12/08 03:25:33;;;;;;;19.60;13.30;;;;;;;2.14;100.00;100472.63;5094862;28;20040;-59
2023/12/08 03:27:59;;;;;;;22.58;13.57;;;;;;;2.13;100.00;100463.06;5113473;28;20120;-59
2023/12/08 03:30:24;;;;;;;25.30;14.07;;;;;;;2.16;100.00;100462.97;5113596;27;20080;-59
2023/12/08 03:32:49;;;;;;;20.23;13.20;;;;;;;2.17;100.00;100462.03;5113924;27;20031;-59
2023/12/08 03:35:15;;;;;;;20.07;13.57;;;;;;;2.18;100.00;100469.88;5113100;28;20024;-59
2023/12/08 03:37:41;;;;;;;20.60;12.88;;;;;;;2.20;100.00;100468.03;5114729;27;20248;-59
2023/12/08 03:40:07;;;;;;;20.80;12.73;;;;;;;2.11;100.00;100464.88;5112271;27;20023;-59
2023/12/08 03:42:36;;;;;;;18.10;12.40;;;;;;;2.15;100.00;100459.47;5095097;28;20030;-59
2023/12/08 03:45:05;;;;;;;21.55;13.80;;;;;;;2.16;100.00;100460.34;5112784;27;20566;-59
2023/12/08 03:47:30;;;;;;;18.80;12.17;;;;;;;2.19;100.00;100471.56;5095540;28;20019;-59
2023/12/08 03:49:58;;;;;;;19.55;14.40;;;;;;;2.18;100.00;100467.25;5114777;27;20026;-59
2023/12/08 03:52:23;;;;;;;22.98;14.57;;;;;;;2.19;100.00;100462.84;5112999;27;20032;-58
2023/12/08 03:54:49;;;;;;;24.55;14.68;;;;;;;2.16;100.00;100455.09;5112875;27;20092;-59
2023/12/08 03:57:14;;;;;;;20.48;12.98;;;;;;;2.16;100.00;100461.19;5082502;28;20027;-59
2023/12/08 03:59:42;;;;;;;20.58;13.57;;;;;;;2.18;100.00;100459.38;5094305;27;20055;-60
2023/12/08 04:02:08;;;;;;;19.23;13.20;;;;;;;2.09;100.00;100438.72;5094583;28;20068;-59
2023/12/08 04:04:34;;;;;;;18.17;12.60;;;;;;;2.17;100.00;100435.81;5116238;27;20086;-59
2023/12/08 04:06:59;;;;;;;20.70;12.73;;;;;;;2.19;100.00;100432.22;5097229;28;20111;-58
2023/12/08 04:09:25;;;;;;;18.60;12.35;;;;;;;2.12;100.00;100420.25;5112507;28;20134;-59
2023/12/08 04:11:50;;;;;;;22.30;13.38;;;;;;;2.18;100.00;100430.53;5094262;28;20070;-59
2023/12/08 04:14:15;;;;;;;22.92;15.02;;;;;;;2.17;100.00;100415.66;5112512;28;20027;-59
2023/12/08 04:16:41;;;;;;;20.52;14.10;;;;;;;2.11;100.00;100412.41;5094138;27;20028;-59
2023/12/08 04:19:09;;;;;;;21.42;14.25;;;;;;;2.15;100.00;100428.00;5112424;27;20497;-59
2023/12/08 04:21:34;;;;;;;20.90;14.02;;;;;;;2.10;100.00;100411.56;5112522;27;20024;-59
2023/12/08 04:24:00;;;;;;;20.80;14.57;;;;;;;2.16;100.00;100455.09;5094991;28;20072;-59
2023/12/08 04:26:25;;;;;;;19.87;12.83;;;;;;;2.10;100.00;100432.53;5114082;27;20521;-59
2023/12/08 04:28:52;;;;;;;19.60;13.07;;;;;;;2.17;100.00;100438.44;5112168;27;20107;-58
2023/12/08 04:31:18;;;;;;;21.35;14.00;;;;;;;2.14;100.00;100431.50;5112706;27;20027;-59
2023/12/08 04:33:44;;;;;;;18.27;12.80;;;;;;;2.18;100.00;100448.88;5113822;27;20027;-59
2023/12/08 04:36:09;;;;;;;18.80;11.95;;;;;;;2.19;100.00;100447.09;5113913;27;20023;-59
2023/12/08 04:38:35;;;;;;;20.65;12.70;;;;;;;2.18;100.00;100434.91;5115927;27;20386;-59
2023/12/08 04:41:00;;;;;;;19.17;13.38;;;;;;;2.19;100.00;100426.97;5094675;28;20038;-58
2023/12/08 04:43:26;;;;;;;21.83;15.05;;;;;;;2.21;100.00;100425.16;5114890;27;20019;-59
2023/12/08 04:45:53;;;;;;;20.42;13.07;;;;;;;2.21;100.00;100424.31;5093065;28;20023;-58
2023/12/08 04:48:19;;;;;;;20.83;13.77;;;;;;;2.20;100.00;100436.53;5112326;28;20033;-59
2023/12/08 04:50:45;;;;;;;23.80;13.05;;;;;;;2.20;100.00;100439.16;5094140;28;20019;-59
2023/12/08 04:53:11;;;;;;;18.10;12.40;;;;;;;2.13;100.00;100427.19;5080811;27;20355;-58
2023/12/08 04:55:39;;;;;;;18.80;13.13;;;;;;;2.21;100.00;100434.81;5092747;28;20040;-59
2023/12/08 04:58:05;;;;;;;24.05;14.20;;;;;;;2.22;100.00;100431.25;5112103;27;20493;-59
2023/12/08 05:00:30;;;;;;;18.33;12.68;;;;;;;2.22;100.00;100432.09;5112514;27;20027;-58
2023/12/08 05:02:57;;;;;;;19.85;12.52;;;;;;;2.23;100.00;100430.34;5093624;28;20027;-59
2023/12/08 05:05:26;;;;;;;21.00;14.32;;;;;;;2.19;100.00;100418.25;5110982;28;20024;-59
2023/12/08 05:07:54;;;;;;;21.65;13.05;;;;;;;2.21;100.00;100429.56;5116193;27;20026;-59
2023/12/08 05:10:19;;;;;;;20.40;13.25;;;;;;;2.23;100.00;100415.44;5114139;27;20020;-59
2023/12/08 05:12:45;;;;;;;22.70;13.90;;;;;;;2.21;100.00;100414.66;5093419;28;20019;-58
2023/12/08 05:15:10;;;;;;;17.80;12.48;;;;;;;2.25;100.00;100411.00;5110707;28;20012;-59
2023/12/08 05:17:36;;;;;;;19.48;13.45;;;;;;;2.24;100.00;100414.56;5113098;28;20039;-58
2023/12/08 05:20:03;;;;;;;20.20;12.48;;;;;;;2.24;100.00;100414.56;5111198;28;20086;-59
2023/12/08 05:22:29;;;;;;;18.17;13.30;;;;;;;2.25;100.00;100407.53;5111701;28;20085;-59
2023/12/08 05:24:54;;;;;;;21.25;13.40;;;;;;;2.20;100.00;100385.84;5093878;28;20108;-59
2023/12/08 05:27:22;;;;;;;18.77;13.30;;;;;;;2.27;100.00;100414.44;5093897;28;20172;-59
2023/12/08 05:29:47;;;;;;;21.80;13.40;;;;;;;2.26;100.00;100415.38;5111269;28;20023;-59
2023/12/08 05:32:13;;;;;;;19.15;13.38;;;;;;;2.32;100.00;100422.13;5111572;28;20524;-59
2023/12/08 05:34:38;;;;;;;21.38;14.02;;;;;;;2.33;100.00;100421.25;5093184;28;20104;-59
2023/12/08 05:37:04;;;;;;;24.30;14.00;;;;;;;2.26;100.00;100423.25;5112399;28;20073;-59
2023/12/08 05:39:30;;;;;;;22.30;14.20;;;;;;;2.34;100.00;100428.19;5096823;28;20165;-59
2023/12/08 05:41:55;;;;;;;18.30;12.05;;;;;;;2.34;100.00;100424.72;5092989;28;20436;-59
2023/12/08 05:44:21;;;;;;;19.38;13.40;;;;;;;2.33;100.00;100426.50;5111350;28;20434;-59
2023/12/08 05:46:46;;;;;;;17.13;12.77;;;;;;;2.39;100.00;100439.38;5092330;28;20024;-59
2023/12/08 05:49:11;;;;;;;17.77;12.75;;;;;;;2.34;100.00;100427.34;5092522;28;20501;-59
2023/12/08 05:51:39;;;;;;;20.73;13.65;;;;;;;2.41;100.00;100444.56;5108510;28;20421;-58
2023/12/08 05:54:04;;;;;;;19.13;13.40;;;;;;;2.42;100.00;100434.03;5111776;28;20112;-59
2023/12/08 05:56:30;;;;;;;18.48;12.45;;;;;;;2.41;100.00;100434.94;5110631;28;20532;-59
2023/12/08 05:58:55;;;;;;;19.50;13.23;;;;;;;2.42;100.00;100430.56;5093324;28;20027;-59
2023/12/08 06:01:21;;;;;;;19.15;12.95;;;;;;;2.43;100.00;100427.84;5110834;28;20031;-59
2023/12/08 06:03:47;;;;;;;19.02;13.55;;;;;;;2.45;100.00;100426.03;5092821;28;20363;-58
2023/12/08 06:06:12;;;;;;;20.17;13.13;;;;;;;2.48;100.00;100425.94;5094605;28;20035;-59
2023/12/08 06:08:38;;;;;;;21.92;14.23;;;;;;;2.50;100.00;100431.13;5116484;27;20011;-59
2023/12/08 06:11:04;;;;;;;20.00;13.40;;;;;;;2.51;100.00;100435.47;5097074;28;20026;-58
2023/12/08 06:13:29;;;;;;;18.15;13.88;;;;;;;2.53;100.00;100435.38;5113286;27;20028;-58
2023/12/08 06:15:54;;;;;;;20.52;13.88;;;;;;;2.54;100.00;100431.88;5098045;28;20024;-59
2023/12/08 06:18:20;;;;;;;22.05;13.27;;;;;;;2.54;100.00;100431.88;5096203;28;20035;-59
2023/12/08 06:20:45;;;;;;;24.55;13.32;;;;;;;2.55;100.00;100441.44;5096165;28;20073;-58
2023/12/08 06:23:11;;;;;;;19.65;12.70;;;;;;;2.56;100.00;100430.91;5114726;28;20016;-59
2023/12/08 06:25:36;;;;;;;19.88;13.43;;;;;;;2.59;100.00;100430.78;5102230;27;20390;-58
2023/12/08 06:28:02;;;;;;;19.83;13.85;;;;;;;2.60;100.00;100440.38;5097436;27;20104;-58
2023/12/08 06:30:27;;;;;;;20.27;13.38;;;;;;;2.62;100.00;100435.09;5107716;27;20058;-59
2023/12/08 06:32:53;;;;;;;24.98;13.18;;;;;;;2.64;100.00;100447.22;5114609;27;20032;-59
2023/12/08 06:35:18;;;;;;;20.05;12.57;;;;;;;2.60;100.00;100439.53;5095980;28;20019;-58
2023/12/08 06:37:44;;;;;;;22.80;13.15;;;;;;;2.69;100.00;100447.06;5115530;27;20031;-59
2023/12/08 06:40:13;;;;;;;18.58;12.55;;;;;;;2.68;100.00;100440.09;5100019;27;20541;-59
2023/12/08 06:42:38;;;;;;;21.60;12.90;;;;;;;2.68;100.00;100448.84;5119942;27;20027;-59
2023/12/08 06:45:04;;;;;;;17.95;13.10;;;;;;;2.70;100.00;100456.63;5113854;28;20031;-59
2023/12/08 06:47:29;;;;;;;25.65;14.85;;;;;;;2.64;100.00;100439.34;5114149;27;20050;-59
2023/12/08 06:49:55;;;;;;;17.52;11.95;;;;;;;2.75;100.00;100452.06;5097518;28;20023;-59
2023/12/08 06:52:20;;;;;;;17.60;12.65;;;;;;;2.74;100.00;100453.00;5097752;28;20058;-59
2023/12/08 06:54:45;;;;;;;17.92;11.38;;;;;;;2.75;100.00;100459.09;5095705;28;20024;-59
2023/12/08 06:57:11;;;;;;;19.77;13.30;;;;;;;2.77;100.00;100462.53;5095411;28;20062;-59
2023/12/08 06:59:36;;;;;;;21.70;13.27;;;;;;;2.75;100.00;100462.56;5113958;27;20016;-58
2023/12/08 07:02:02;;;;;;;31.55;15.45;;;;;;;2.78;100.00;100459.00;5117862;27;20473;-59
2023/12/08 07:04:27;;;;;;;21.85;13.13;;;;;;;2.81;100.00;100464.97;5113920;28;20068;-58
2023/12/08 07:06:52;;;;;;;22.77;12.85;;;;;;;2.82;100.00;100464.06;5118156;27;20101;-59
2023/12/08 07:09:18;;;;;;;24.60;14.15;;;;;;;2.82;100.00;100464.06;5113415;28;20023;-59
2023/12/08 07:11:44;;;;;;;19.38;13.05;;;;;;;2.83;100.00;100459.69;5095554;28;20356;-58
2023/12/08 07:14:09;;;;;;;20.52;12.95;;;;;;;2.83;100.00;100460.53;5113996;28;20269;-58
2023/12/08 07:16:35;;;;;;;23.48;13.60;;;;;;;2.78;100.00;100453.72;5113927;27;20024;-58
2023/12/08 07:19:00;;;;;;;25.10;15.18;;;;;;;2.86;100.00;100462.19;5077909;27;20027;-59
2023/12/08 07:21:26;;;;;;;25.30;14.20;;;;;;;2.88;100.00;100471.72;5095218;28;20027;-59
2023/12/08 07:23:51;;;;;;;20.92;14.18;;;;;;;2.88;100.00;100465.59;5112844;28;20024;-59
2023/12/08 07:26:16;;;;;;;22.88;13.48;;;;;;;2.88;100.00;100468.22;5114020;27;20494;-59
2023/12/08 07:28:42;;;;;;;23.38;13.48;;;;;;;2.87;100.00;100464.75;5097609;27;20022;-59
2023/12/08 07:31:08;;;;;;;26.20;13.82;;;;;;;2.86;100.00;100470.91;5115376;27;20012;-59
2023/12/08 07:33:34;;;;;;;23.15;14.25;;;;;;;2.88;100.00;100476.09;5113647;27;20027;-59
2023/12/08 07:35:59;;;;;;;23.33;13.32;;;;;;;2.91;100.00;100476.88;5095176;28;20032;-59
2023/12/08 07:38:25;;;;;;;22.85;13.60;;;;;;;2.92;100.00;100480.34;5095105;27;20030;-59
2023/12/08 07:40:50;;;;;;;23.13;14.60;;;;;;;2.96;100.00;100488.03;5115981;27;20031;-59
2023/12/08 07:43:15;;;;;;;25.38;14.82;;;;;;;2.96;100.00;100487.19;5112996;28;20050;-59
2023/12/08 07:45:41;;;;;;;25.42;15.25;;;;;;;2.94;100.00;100486.38;5094036;28;20412;-59
2023/12/08 07:48:08;;;;;;;24.50;13.93;;;;;;;2.96;100.00;100490.66;5113459;28;20072;-58
2023/12/08 07:50:34;;;;;;;22.42;13.98;;;;;;;2.98;100.00;100501.13;5097003;28;20024;-59
2023/12/08 07:52:59;;;;;;;27.80;17.13;;;;;;;2.96;100.00;100492.44;5112922;27;20057;-59
2023/12/08 07:55:25;;;;;;;24.77;14.48;;;;;;;2.99;100.00;100496.72;5112871;28;20027;-58
2023/12/08 07:57:50;;;;;;;24.58;14.43;;;;;;;3.02;100.00;100501.84;5114048;27;20454;-58
2023/12/08 08:00:16;;;;;;;23.85;14.30;;;;;;;3.02;100.00;100496.59;5093727;28;20043;-58
2023/12/08 08:02:43;;;;;;;26.25;15.48;;;;;;;2.99;100.00;100489.69;5115414;27;20023;-59
2023/12/08 08:05:09;;;;;;;33.60;17.45;;;;;;;3.06;100.00;100504.31;5094516;28;20024;-59
2023/12/08 08:07:35;;;;;;;29.85;16.40;;;;;;;3.09;100.00;100496.34;5112543;28;20049;-58
2023/12/08 08:10:00;;;;;;;30.58;16.30;;;;;;;3.11;100.00;100504.13;5112439;28;20035;-59
2023/12/08 08:12:25;;;;;;;29.58;16.90;;;;;;;3.13;100.00;100508.41;5096050;28;20025;-58
2023/12/08 08:14:51;;;;;;;30.75;16.30;;;;;;;3.14;100.00;100504.88;5111533;27;20027;-58
2023/12/08 08:17:17;;;;;;;28.95;14.00;;;;;;;3.18;100.00;100506.50;5114294;27;20023;-59
2023/12/08 08:19:43;;;;;;;30.92;16.90;;;;;;;3.23;100.00;100506.28;5103828;27;20027;-59
2023/12/08 08:22:10;;;;;;;25.38;16.40;;;;;;;3.14;100.00;100490.88;5112790;27;20030;-58
2023/12/08 08:24:36;;;;;;;39.95;18.30;;;;;;;3.31;100.00;100509.50;5101049;27;20051;-59
2023/12/08 08:27:02;;;;;;;36.88;18.77;;;;;;;3.31;100.00;100506.00;5120719;27;20617;-59
2023/12/08 08:29:27;;;;;;;29.60;17.38;;;;;;;3.30;100.00;100507.78;5111105;28;20482;-58
2023/12/08 08:31:53;;;;;;;39.88;18.70;;;;;;;3.38;100.00;100505.72;5099781;27;20114;-58
2023/12/08 08:34:18;;;;;;;38.35;18.48;;;;;;;3.43;100.00;100516.03;5112203;28;20019;-59
2023/12/08 08:36:44;;;;;;;38.90;18.85;;;;;;;3.37;100.00;100496.09;5095512;28;20035;-58
2023/12/08 08:39:09;;;;;;;36.38;17.38;;;;;;;3.52;100.00;100517.47;5112362;28;20031;-59
2023/12/08 08:41:35;;;;;;;39.75;18.30;;;;;;;3.53;100.00;100516.53;5112367;28;20424;-59
2023/12/08 08:44:01;;;;;;;37.83;18.90;;;;;;;3.56;100.00;100516.41;5112265;27;20431;-58
2023/12/08 08:46:26;;;;;;;39.97;20.88;;;;;;;3.60;100.00;100529.38;5111562;28;20035;-59
2023/12/08 08:48:54;;;;;;;40.28;20.90;;;;;;;3.66;100.00;100532.69;5117073;27;20054;-59
2023/12/08 08:51:24;;;;;;;41.33;19.55;;;;;;;3.69;100.00;100537.84;5105141;27;20039;-59
2023/12/08 08:53:54;;;;;;;43.78;20.10;;;;;;;3.73;100.00;100542.91;5114385;27;20409;-59
2023/12/08 08:56:19;;;;;;;41.97;19.38;;;;;;;3.77;100.00;100543.66;5114444;27;20034;-58
2023/12/08 08:58:45;;;;;;;51.78;19.13;;;;;;;3.65;100.00;100513.44;5111867;28;20036;-58
2023/12/08 09:01:10;;;;;;;33.38;17.05;;;;;;;3.84;100.00;100539.84;5093125;28;20394;-57
2023/12/08 09:03:35;;;;;;;35.15;17.05;;;;;;;3.86;100.00;100541.50;5093827;28;20107;-58
2023/12/08 09:06:01;;;;;;;29.63;15.60;;;;;;;3.87;100.00;100537.94;5111478;28;20454;-58
2023/12/08 09:08:26;;;;;;;29.25;13.32;;;;;;;3.98;100.00;100555.09;5093458;28;20032;-58
2023/12/08 09:10:52;;;;;;;31.77;17.45;;;;;;;3.97;100.00;100555.97;5111442;28;20132;-57
2023/12/08 09:13:18;;;;;;;40.78;16.63;;;;;;;4.01;100.00;100558.44;5111862;28;20036;-57
2023/12/08 09:15:43;;;;;;;34.10;16.63;;;;;;;4.03;100.00;100547.84;5111202;28;20034;-57
2023/12/08 09:18:09;;;;;;;34.85;15.98;;;;;;;4.08;100.00;100552.00;5093770;28;20077;-57
2023/12/08 09:20:36;;;;;;;33.28;15.77;;;;;;;4.12;100.00;100554.50;5093412;28;20030;-57
2023/12/08 09:23:02;;;;;;;43.47;17.65;;;;;;;4.08;100.00;100551.16;5112218;28;20030;-57
2023/12/08 09:25:27;;;;;;;42.08;16.33;;;;;;;4.22;100.00;100553.22;5111659;28;20047;-57
2023/12/08 09:27:52;;;;;;;44.85;17.00;;;;;;;4.15;100.00;100542.09;5112526;28;20047;-57
2023/12/08 09:30:18;;;;;;;40.40;16.80;;;;;;;4.18;100.00;100544.59;5111687;28;20023;-57
2023/12/08 09:32:43;;;;;;;32.83;14.88;;;;;;;4.22;100.00;100556.69;5112756;28;20031;-58
2023/12/08 09:35:09;;;;;;;34.10;14.82;;;;;;;4.31;100.00;100563.34;5112117;28;20019;-57
2023/12/08 09:37:34;;;;;;;30.63;14.85;;;;;;;4.32;100.00;100572.97;5094396;28;20031;-57
2023/12/08 09:40:00;;;;;;;35.33;16.08;;;;;;;4.35;100.00;100566.72;5111940;28;20439;-57
2023/12/08 09:42:36;;;;;;;39.03;18.58;;;;;;;4.41;100.00;100579.63;5098092;28;20023;-57
2023/12/08 09:45:05;;;;;;;43.63;16.95;;;;;;;4.36;100.00;100560.56;5115788;28;20072;-58
2023/12/08 09:47:34;;;;;;;37.38;17.00;;;;;;;4.43;100.00;100573.38;5097840;28;20498;-57
2023/12/08 09:50:02;;;;;;;30.75;15.18;;;;;;;4.47;100.00;100569.72;5116115;28;20084;-57
2023/12/08 09:52:33;;;;;;;41.22;16.63;;;;;;;4.50;100.00;100573.97;5097839;28;20381;-57
2023/12/08 09:54:59;;;;;;;36.97;15.63;;;;;;;4.54;100.00;100572.94;5097593;28;20524;-57
2023/12/08 09:57:28;;;;;;;31.60;15.00;;;;;;;4.58;100.00;100579.75;5116093;28;20066;-57
2023/12/08 09:59:55;;;;;;;39.38;15.32;;;;;;;4.61;100.00;100576.16;5097224;28;20054;-57
2023/12/08 10:02:25;;;;;;;41.63;15.68;;;;;;;4.69;100.00;100581.94;5115837;28;20080;-57
2023/12/08 10:04:51;;;;;;;37.50;15.68;;;;;;;4.71;100.00;100585.38;5115828;28;20024;-57
2023/12/08 10:07:17;;;;;;;34.83;15.00;;;;;;;4.76;100.00;100578.13;5097717;28;20512;-57
2023/12/08 10:09:43;;;;;;;29.85;15.40;;;;;;;4.82;100.00;100572.56;5115467;28;20431;-57
2023/12/08 10:12:11;;;;;;;33.67;14.50;;;;;;;4.87;100.00;100575.88;5097598;28;20110;-57
2023/12/08 10:14:53;;;;;;;26.77;13.93;;;;;;;4.88;100.00;100566.19;5115428;28;20020;-57
2023/12/08 10:17:19;;;;;;;28.83;14.00;;;;;;;4.97;100.00;100568.41;5115733;28;20020;-57
2023/12/08 10:19:44;;;;;;;25.60;12.07;;;;;;;5.11;100.00;100566.00;5096359;28;20034;-57
2023/12/08 10:22:10;;;;;;;33.45;14.80;;;;;;;5.10;100.00;100563.47;5115017;28;20031;-57
2023/12/08 10:24:35;;;;;;;33.38;13.65;;;;;;;5.16;100.00;100574.59;5114555;28;20065;-57
2023/12/08 10:27:01;;;;;;;42.25;14.68;;;;;;;5.19;100.00;100582.34;5114890;27;20484;-57
2023/12/08 10:29:33;;;;;;;35.88;16.15;;;;;;;5.23;100.00;100576.03;5096435;28;20031;-57
2023/12/08 10:31:59;;;;;;;30.77;14.68;;;;;;;5.29;100.00;100571.38;5096540;28;20028;-57
2023/12/08 10:34:26;;;;;;;32.45;11.63;;;;;;;5.40;100.00;100590.22;5114265;28;20069;-57
2023/12/08 10:36:52;;;;;;;28.45;12.57;;;;;;;5.36;100.00;100586.88;5119931;27;20038;-57
2023/12/08 10:39:18;;;;;;;36.10;13.82;;;;;;;5.38;100.00;100585.03;5115224;27;20035;-57
2023/12/08 10:41:43;;;;;;;41.15;15.00;;;;;;;5.39;100.00;100577.97;5125513;27;20027;-57
2023/12/08 10:44:14;;;;;;;32.65;15.57;;;;;;;5.45;100.00;100585.59;5115023;28;20046;-58
2023/12/08 10:46:40;;;;;;;34.28;14.38;;;;;;;5.42;100.00;100580.47;5114000;28;20040;-57
2023/12/08 10:49:06;;;;;;;36.30;13.90;;;;;;;5.47;100.00;100589.88;5114540;28;20486;-57
2023/12/08 10:51:34;;;;;;;39.00;15.43;;;;;;;5.55;100.00;100583.38;5095719;28;20024;-58
2023/12/08 10:54:00;;;;;;;27.42;12.52;;;;;;;5.59;100.00;100580.53;5095248;28;20031;-57
2023/12/08 10:56:25;;;;;;;39.25;15.95;;;;;;;5.61;100.00;100577.81;5095203;28;20030;-57
2023/12/08 10:59:00;;;;;;;29.42;14.27;;;;;;;5.63;100.00;100563.63;5114235;28;20027;-57
2023/12/08 11:01:26;;;;;;;32.20;14.07;;;;;;;5.72;100.00;100572.03;5095377;28;20031;-57
2023/12/08 11:03:57;;;;;;;34.55;14.25;;;;;;;5.67;100.00;100578.38;5095929;28;20023;-57
2023/12/08 11:06:30;;;;;;;41.20;14.75;;;;;;;5.80;100.00;100573.38;5113695;28;20035;-57